sensor_id;sensor_type;location;lat;lon;timestamp;temperature;humidity
11079;DHT22;5592;49.234;7.268;2022-07-30T00:01:28;13.70;99.90
11079;DHT22;5592;49.234;7.268;2022-07-30T00:03:53;13.70;99.90
11079;DHT22;5592;49.234;7.268;2022-07-30T00:06:19;13.70;99.90
11079;DHT22;5592;49.234;7.268;2022-07-30T00:08:45;13.80;99.90
11079;DHT22;5592;49.234;7.268;2022-07-30T00:11:10;13.80;99.90
11079;DHT22;5592;49.234;7.268;2022-07-30T00:13:36;13.80;99.90
11079;DHT22;5592;49.234;7.268;2022-07-30T00:16:02;13.70;99.90
11079;DHT22;5592;49.234;7.268;2022-07-30T00:18:28;13.60;99.90
11079;DHT22;5592;49.234;7.268;2022-07-30T00:20:53;13.50;99.90
11079;DHT22;5592;49.234;7.268;2022-07-30T00:23:19;13.40;99.90
11079;DHT22;5592;49.234;7.268;2022-07-30T00:25:45;13.30;99.90
11079;DHT22;5592;49.234;7.268;2022-07-30T00:28:10;13.20;99.90
11079;DHT22;5592;49.234;7.268;2022-07-30T00:30:36;13.20;99.90
11079;DHT22;5592;49.234;7.268;2022-07-30T00:33:03;13.10;99.90
11079;DHT22;5592;49.234;7.268;2022-07-30T00:35:28;13.00;99.90
11079;DHT22;5592;49.234;7.268;2022-07-30T00:37:54;12.90;99.90
11079;DHT22;5592;49.234;7.268;2022-07-30T00:40:20;12.90;99.90
11079;DHT22;5592;49.234;7.268;2022-07-30T00:42:47;12.90;99.90
11079;DHT22;5592;49.234;7.268;2022-07-30T00:45:14;12.90;99.90
11079;DHT22;5592;49.234;7.268;2022-07-30T00:47:40;12.80;99.90
11079;DHT22;5592;49.234;7.268;2022-07-30T00:50:07;12.80;99.90
11079;DHT22;5592;49.234;7.268;2022-07-30T00:52:34;12.70;99.90
11079;DHT22;5592;49.234;7.268;2022-07-30T00:55:01;12.70;99.90
11079;DHT22;5592;49.234;7.268;2022-07-30T00:57:27;12.60;99.90
11079;DHT22;5592;49.234;7.268;2022-07-30T00:59:53;12.60;99.90
11079;DHT22;5592;49.234;7.268;2022-07-30T01:02:20;12.60;99.90
11079;DHT22;5592;49.234;7.268;2022-07-30T01:04:45;12.50;99.90
11079;DHT22;5592;49.234;7.268;2022-07-30T01:07:11;12.50;99.90
11079;DHT22;5592;49.234;7.268;2022-07-30T01:09:38;12.50;99.90
11079;DHT22;5592;49.234;7.268;2022-07-30T01:12:04;12.50;99.90
11079;DHT22;5592;49.234;7.268;2022-07-30T01:14:33;12.40;99.90
11079;DHT22;5592;49.234;7.268;2022-07-30T01:16:59;12.40;99.90
11079;DHT22;5592;49.234;7.268;2022-07-30T01:19:27;12.30;99.90
11079;DHT22;5592;49.234;7.268;2022-07-30T01:27:43;12.10;99.90
11079;DHT22;5592;49.234;7.268;2022-07-30T01:30:11;12.10;99.90
11079;DHT22;5592;49.234;7.268;2022-07-30T01:32:40;12.00;99.90
11079;DHT22;5592;49.234;7.268;2022-07-30T01:35:08;12.00;99.90
11079;DHT22;5592;49.234;7.268;2022-07-30T01:37:36;12.00;99.90
11079;DHT22;5592;49.234;7.268;2022-07-30T01:40:03;11.90;99.90
11079;DHT22;5592;49.234;7.268;2022-07-30T01:42:29;11.90;99.90
11079;DHT22;5592;49.234;7.268;2022-07-30T01:44:59;11.90;99.90
11079;DHT22;5592;49.234;7.268;2022-07-30T01:47:27;11.90;99.90
11079;DHT22;5592;49.234;7.268;2022-07-30T01:49:54;11.80;99.90
11079;DHT22;5592;49.234;7.268;2022-07-30T01:52:22;11.80;99.90
11079;DHT22;5592;49.234;7.268;2022-07-30T01:54:51;11.80;99.90
11079;DHT22;5592;49.234;7.268;2022-07-30T01:57:19;11.70;99.90
11079;DHT22;5592;49.234;7.268;2022-07-30T01:59:49;11.70;99.90
11079;DHT22;5592;49.234;7.268;2022-07-30T02:02:19;11.70;99.90
11079;DHT22;5592;49.234;7.268;2022-07-30T02:04:45;11.70;99.90
11079;DHT22;5592;49.234;7.268;2022-07-30T02:07:57;11.60;99.90
11079;DHT22;5592;49.234;7.268;2022-07-30T02:11:15;11.60;99.90
11079;DHT22;5592;49.234;7.268;2022-07-30T02:13:22;11.60;99.90
11079;DHT22;5592;49.234;7.268;2022-07-30T02:15:58;11.50;99.90
11079;DHT22;5592;49.234;7.268;2022-07-30T02:21:14;11.50;99.90
11079;DHT22;5592;49.234;7.268;2022-07-30T02:23:44;11.40;99.90
11079;DHT22;5592;49.234;7.268;2022-07-30T02:26:17;11.40;99.90
11079;DHT22;5592;49.234;7.268;2022-07-30T02:28:46;11.40;99.90
11079;DHT22;5592;49.234;7.268;2022-07-30T02:31:16;11.40;99.90
11079;DHT22;5592;49.234;7.268;2022-07-30T02:33:43;11.50;99.90
11079;DHT22;5592;49.234;7.268;2022-07-30T02:36:11;11.50;99.90
11079;DHT22;5592;49.234;7.268;2022-07-30T02:38:38;11.50;99.90
11079;DHT22;5592;49.234;7.268;2022-07-30T02:41:07;11.40;99.90
11079;DHT22;5592;49.234;7.268;2022-07-30T02:43:33;11.40;99.90
11079;DHT22;5592;49.234;7.268;2022-07-30T02:46:00;11.30;99.90
11079;DHT22;5592;49.234;7.268;2022-07-30T02:48:28;11.30;99.90
11079;DHT22;5592;49.234;7.268;2022-07-30T02:50:54;11.30;99.90
11079;DHT22;5592;49.234;7.268;2022-07-30T02:53:22;11.30;99.90
11079;DHT22;5592;49.234;7.268;2022-07-30T02:55:49;11.30;99.90
11079;DHT22;5592;49.234;7.268;2022-07-30T02:58:21;11.20;99.90
11079;DHT22;5592;49.234;7.268;2022-07-30T03:00:50;11.10;99.90
11079;DHT22;5592;49.234;7.268;2022-07-30T03:03:17;11.10;99.90
11079;DHT22;5592;49.234;7.268;2022-07-30T03:05:43;11.10;99.90
11079;DHT22;5592;49.234;7.268;2022-07-30T03:08:12;11.00;99.90
11079;DHT22;5592;49.234;7.268;2022-07-30T03:10:40;11.00;99.90
11079;DHT22;5592;49.234;7.268;2022-07-30T03:13:09;11.00;99.90
11079;DHT22;5592;49.234;7.268;2022-07-30T03:15:41;10.90;99.90
11079;DHT22;5592;49.234;7.268;2022-07-30T03:18:11;10.90;99.90
11079;DHT22;5592;49.234;7.268;2022-07-30T03:20:37;11.00;99.90
11079;DHT22;5592;49.234;7.268;2022-07-30T03:23:04;11.00;99.90
11079;DHT22;5592;49.234;7.268;2022-07-30T03:25:31;11.00;99.90
11079;DHT22;5592;49.234;7.268;2022-07-30T03:27:59;11.00;99.90
11079;DHT22;5592;49.234;7.268;2022-07-30T03:30:27;10.90;99.90
11079;DHT22;5592;49.234;7.268;2022-07-30T03:32:54;10.90;99.90
11079;DHT22;5592;49.234;7.268;2022-07-30T03:35:21;10.90;99.90
11079;DHT22;5592;49.234;7.268;2022-07-30T03:37:49;10.90;99.90
11079;DHT22;5592;49.234;7.268;2022-07-30T03:40:16;10.90;99.90
11079;DHT22;5592;49.234;7.268;2022-07-30T03:42:43;10.90;99.90
11079;DHT22;5592;49.234;7.268;2022-07-30T03:45:10;10.80;99.90
11079;DHT22;5592;49.234;7.268;2022-07-30T03:47:39;10.80;99.90
11079;DHT22;5592;49.234;7.268;2022-07-30T03:50:08;10.80;99.90
11079;DHT22;5592;49.234;7.268;2022-07-30T03:52:37;10.80;99.90
11079;DHT22;5592;49.234;7.268;2022-07-30T03:55:06;10.80;99.90
11079;DHT22;5592;49.234;7.268;2022-07-30T03:57:32;10.80;99.90
11079;DHT22;5592;49.234;7.268;2022-07-30T03:59:58;10.80;99.90
11079;DHT22;5592;49.234;7.268;2022-07-30T04:02:24;10.80;99.90
11079;DHT22;5592;49.234;7.268;2022-07-30T04:04:50;10.70;99.90
11079;DHT22;5592;49.234;7.268;2022-07-30T04:07:16;10.70;99.90
11079;DHT22;5592;49.234;7.268;2022-07-30T04:09:42;10.70;99.90
11079;DHT22;5592;49.234;7.268;2022-07-30T04:12:07;10.70;99.90
11079;DHT22;5592;49.234;7.268;2022-07-30T04:14:41;10.80;99.90
11079;DHT22;5592;49.234;7.268;2022-07-30T04:17:12;10.80;99.90
11079;DHT22;5592;49.234;7.268;2022-07-30T04:20:09;10.90;99.90
11079;DHT22;5592;49.234;7.268;2022-07-30T04:22:37;10.90;99.90
11079;DHT22;5592;49.234;7.268;2022-07-30T04:25:05;10.90;99.90
11079;DHT22;5592;49.234;7.268;2022-07-30T04:27:31;11.00;99.90
11079;DHT22;5592;49.234;7.268;2022-07-30T04:29:58;11.10;99.90
11079;DHT22;5592;49.234;7.268;2022-07-30T04:32:24;11.10;99.90
11079;DHT22;5592;49.234;7.268;2022-07-30T04:34:52;11.10;99.90
11079;DHT22;5592;49.234;7.268;2022-07-30T04:37:21;11.20;99.90
11079;DHT22;5592;49.234;7.268;2022-07-30T04:39:47;11.20;99.90
11079;DHT22;5592;49.234;7.268;2022-07-30T04:42:19;11.30;99.90
11079;DHT22;5592;49.234;7.268;2022-07-30T04:44:45;11.40;99.90
11079;DHT22;5592;49.234;7.268;2022-07-30T04:47:11;11.40;99.90
11079;DHT22;5592;49.234;7.268;2022-07-30T04:49:37;11.50;99.90
11079;DHT22;5592;49.234;7.268;2022-07-30T04:52:04;11.50;99.90
11079;DHT22;5592;49.234;7.268;2022-07-30T04:54:40;11.60;99.90
11079;DHT22;5592;49.234;7.268;2022-07-30T04:57:09;11.60;99.90
11079;DHT22;5592;49.234;7.268;2022-07-30T04:59:36;11.70;99.90
11079;DHT22;5592;49.234;7.268;2022-07-30T05:02:05;11.80;99.90
11079;DHT22;5592;49.234;7.268;2022-07-30T05:04:33;11.80;99.90
11079;DHT22;5592;49.234;7.268;2022-07-30T05:07:00;11.90;99.90
11079;DHT22;5592;49.234;7.268;2022-07-30T05:09:28;12.00;99.90
11079;DHT22;5592;49.234;7.268;2022-07-30T05:11:55;12.20;99.90
11079;DHT22;5592;49.234;7.268;2022-07-30T05:14:22;12.40;99.90
11079;DHT22;5592;49.234;7.268;2022-07-30T05:16:48;12.50;99.90
11079;DHT22;5592;49.234;7.268;2022-07-30T05:19:14;12.70;99.90
11079;DHT22;5592;49.234;7.268;2022-07-30T05:21:39;13.20;99.90
11079;DHT22;5592;49.234;7.268;2022-07-30T05:24:06;14.10;99.90
11079;DHT22;5592;49.234;7.268;2022-07-30T05:26:31;15.00;99.90
11079;DHT22;5592;49.234;7.268;2022-07-30T05:28:57;16.10;99.90
11079;DHT22;5592;49.234;7.268;2022-07-30T05:31:23;17.50;99.90
11079;DHT22;5592;49.234;7.268;2022-07-30T05:33:49;18.70;99.90
11079;DHT22;5592;49.234;7.268;2022-07-30T05:36:15;19.90;99.90
11079;DHT22;5592;49.234;7.268;2022-07-30T05:38:40;20.80;99.90
11079;DHT22;5592;49.234;7.268;2022-07-30T05:41:06;21.70;99.90
11079;DHT22;5592;49.234;7.268;2022-07-30T05:43:32;22.60;99.90
11079;DHT22;5592;49.234;7.268;2022-07-30T05:45:58;23.40;99.90
11079;DHT22;5592;49.234;7.268;2022-07-30T05:48:23;23.80;99.90
11079;DHT22;5592;49.234;7.268;2022-07-30T05:50:49;24.30;99.90
11079;DHT22;5592;49.234;7.268;2022-07-30T05:53:14;24.80;99.90
11079;DHT22;5592;49.234;7.268;2022-07-30T05:55:40;25.30;99.90
11079;DHT22;5592;49.234;7.268;2022-07-30T05:58:06;25.90;99.90
11079;DHT22;5592;49.234;7.268;2022-07-30T06:00:31;26.50;99.90
11079;DHT22;5592;49.234;7.268;2022-07-30T06:03:00;27.00;99.90
11079;DHT22;5592;49.234;7.268;2022-07-30T06:05:28;27.50;99.90
11079;DHT22;5592;49.234;7.268;2022-07-30T06:07:55;27.60;99.90
11079;DHT22;5592;49.234;7.268;2022-07-30T06:10:20;27.90;99.90
11079;DHT22;5592;49.234;7.268;2022-07-30T06:12:46;28.60;99.90
11079;DHT22;5592;49.234;7.268;2022-07-30T06:15:11;28.70;99.90
11079;DHT22;5592;49.234;7.268;2022-07-30T06:17:45;29.00;99.90
11079;DHT22;5592;49.234;7.268;2022-07-30T06:20:13;29.80;99.90
11079;DHT22;5592;49.234;7.268;2022-07-30T06:22:39;30.20;99.30
11079;DHT22;5592;49.234;7.268;2022-07-30T06:25:06;30.50;98.60
11079;DHT22;5592;49.234;7.268;2022-07-30T06:27:32;30.80;97.90
11079;DHT22;5592;49.234;7.268;2022-07-30T06:30:04;31.10;95.50
11079;DHT22;5592;49.234;7.268;2022-07-30T06:32:30;31.50;94.30
11079;DHT22;5592;49.234;7.268;2022-07-30T06:34:56;31.90;93.70
11079;DHT22;5592;49.234;7.268;2022-07-30T06:37:21;32.20;92.30
11079;DHT22;5592;49.234;7.268;2022-07-30T06:39:47;32.30;91.20
11079;DHT22;5592;49.234;7.268;2022-07-30T06:42:13;32.60;90.60
11079;DHT22;5592;49.234;7.268;2022-07-30T06:44:38;33.00;88.70
11079;DHT22;5592;49.234;7.268;2022-07-30T06:47:04;33.60;85.20
11079;DHT22;5592;49.234;7.268;2022-07-30T06:49:31;33.70;83.70
11079;DHT22;5592;49.234;7.268;2022-07-30T06:51:57;34.00;82.80
11079;DHT22;5592;49.234;7.268;2022-07-30T06:54:23;34.20;81.60
11079;DHT22;5592;49.234;7.268;2022-07-30T06:56:49;34.60;78.00
11079;DHT22;5592;49.234;7.268;2022-07-30T06:59:15;34.90;79.10
11079;DHT22;5592;49.234;7.268;2022-07-30T07:01:40;35.10;78.00
11079;DHT22;5592;49.234;7.268;2022-07-30T07:04:06;35.20;77.90
11079;DHT22;5592;49.234;7.268;2022-07-30T07:06:32;35.40;76.50
11079;DHT22;5592;49.234;7.268;2022-07-30T07:08:58;35.40;74.90
11079;DHT22;5592;49.234;7.268;2022-07-30T07:11:23;36.00;72.90
11079;DHT22;5592;49.234;7.268;2022-07-30T07:13:49;36.70;69.70
11079;DHT22;5592;49.234;7.268;2022-07-30T07:16:15;36.70;68.80
11079;DHT22;5592;49.234;7.268;2022-07-30T07:18:41;37.10;67.90
11079;DHT22;5592;49.234;7.268;2022-07-30T07:21:06;36.90;67.00
11079;DHT22;5592;49.234;7.268;2022-07-30T07:23:33;36.90;67.00
11079;DHT22;5592;49.234;7.268;2022-07-30T07:25:59;37.00;66.80
11079;DHT22;5592;49.234;7.268;2022-07-30T07:28:25;37.30;66.40
11079;DHT22;5592;49.234;7.268;2022-07-30T07:30:50;37.50;65.30
11079;DHT22;5592;49.234;7.268;2022-07-30T07:33:16;37.80;64.70
11079;DHT22;5592;49.234;7.268;2022-07-30T07:35:42;37.60;64.70
11079;DHT22;5592;49.234;7.268;2022-07-30T07:38:08;37.90;64.10
11079;DHT22;5592;49.234;7.268;2022-07-30T07:40:33;38.10;62.70
11079;DHT22;5592;49.234;7.268;2022-07-30T07:42:59;38.10;62.70
11079;DHT22;5592;49.234;7.268;2022-07-30T07:45:24;37.70;62.10
11079;DHT22;5592;49.234;7.268;2022-07-30T07:47:50;38.30;62.10
11079;DHT22;5592;49.234;7.268;2022-07-30T07:50:17;38.70;61.30
11079;DHT22;5592;49.234;7.268;2022-07-30T07:52:43;39.10;59.50
11079;DHT22;5592;49.234;7.268;2022-07-30T07:55:09;39.20;59.40
11079;DHT22;5592;49.234;7.268;2022-07-30T07:57:39;39.60;59.10
11079;DHT22;5592;49.234;7.268;2022-07-30T08:00:10;40.50;57.80
11079;DHT22;5592;49.234;7.268;2022-07-30T08:02:36;40.40;57.00
11079;DHT22;5592;49.234;7.268;2022-07-30T08:05:03;39.50;58.10
11079;DHT22;5592;49.234;7.268;2022-07-30T08:07:29;39.00;56.40
11079;DHT22;5592;49.234;7.268;2022-07-30T08:09:55;39.00;56.50
11079;DHT22;5592;49.234;7.268;2022-07-30T08:12:21;38.40;55.80
11079;DHT22;5592;49.234;7.268;2022-07-30T08:14:46;38.80;55.50
11079;DHT22;5592;49.234;7.268;2022-07-30T08:17:12;38.70;55.90
11079;DHT22;5592;49.234;7.268;2022-07-30T08:19:38;39.50;54.20
11079;DHT22;5592;49.234;7.268;2022-07-30T08:22:04;40.20;52.10
11079;DHT22;5592;49.234;7.268;2022-07-30T08:24:29;40.20;51.70
11079;DHT22;5592;49.234;7.268;2022-07-30T08:26:55;39.20;52.90
11079;DHT22;5592;49.234;7.268;2022-07-30T08:29:21;39.40;52.20
11079;DHT22;5592;49.234;7.268;2022-07-30T08:31:47;39.70;52.10
11079;DHT22;5592;49.234;7.268;2022-07-30T08:34:12;39.50;52.60
11079;DHT22;5592;49.234;7.268;2022-07-30T08:36:38;39.50;51.80
11079;DHT22;5592;49.234;7.268;2022-07-30T08:39:04;38.80;50.90
11079;DHT22;5592;49.234;7.268;2022-07-30T08:41:30;39.00;50.60
11079;DHT22;5592;49.234;7.268;2022-07-30T08:43:59;38.40;49.70
11079;DHT22;5592;49.234;7.268;2022-07-30T08:46:29;37.80;50.30
11079;DHT22;5592;49.234;7.268;2022-07-30T08:48:55;37.90;50.70
11079;DHT22;5592;49.234;7.268;2022-07-30T08:51:22;37.80;50.80
11079;DHT22;5592;49.234;7.268;2022-07-30T08:53:49;38.30;50.40
11079;DHT22;5592;49.234;7.268;2022-07-30T08:56:15;38.40;49.70
11079;DHT22;5592;49.234;7.268;2022-07-30T08:58:41;37.70;50.70
11079;DHT22;5592;49.234;7.268;2022-07-30T09:01:07;37.40;51.60
11079;DHT22;5592;49.234;7.268;2022-07-30T09:03:34;37.40;50.40
11079;DHT22;5592;49.234;7.268;2022-07-30T09:06:01;37.60;51.50
11079;DHT22;5592;49.234;7.268;2022-07-30T09:08:27;37.80;50.10
11079;DHT22;5592;49.234;7.268;2022-07-30T09:10:53;38.60;49.30
11079;DHT22;5592;49.234;7.268;2022-07-30T09:15:52;38.80;49.50
11079;DHT22;5592;49.234;7.268;2022-07-30T09:18:36;38.40;48.30
11079;DHT22;5592;49.234;7.268;2022-07-30T09:21:27;38.40;48.50
11079;DHT22;5592;49.234;7.268;2022-07-30T09:24:04;38.50;48.90
11079;DHT22;5592;49.234;7.268;2022-07-30T09:26:31;37.50;50.30
11079;DHT22;5592;49.234;7.268;2022-07-30T09:29:18;38.30;49.40
11079;DHT22;5592;49.234;7.268;2022-07-30T09:32:05;38.60;49.00
11079;DHT22;5592;49.234;7.268;2022-07-30T09:34:33;39.10;48.40
11079;DHT22;5592;49.234;7.268;2022-07-30T09:37:06;39.00;48.10
11079;DHT22;5592;49.234;7.268;2022-07-30T09:39:41;39.20;47.70
11079;DHT22;5592;49.234;7.268;2022-07-30T09:42:20;39.00;47.20
11079;DHT22;5592;49.234;7.268;2022-07-30T09:44:47;39.00;46.70
11079;DHT22;5592;49.234;7.268;2022-07-30T09:47:32;38.70;46.90
11079;DHT22;5592;49.234;7.268;2022-07-30T09:50:06;38.20;47.00
11079;DHT22;5592;49.234;7.268;2022-07-30T09:52:33;38.30;46.80
11079;DHT22;5592;49.234;7.268;2022-07-30T09:54:59;37.70;47.00
11079;DHT22;5592;49.234;7.268;2022-07-30T09:57:24;37.60;48.00
11079;DHT22;5592;49.234;7.268;2022-07-30T09:59:50;37.90;47.20
11079;DHT22;5592;49.234;7.268;2022-07-30T10:02:16;37.50;48.40
11079;DHT22;5592;49.234;7.268;2022-07-30T10:04:42;38.00;48.00
11079;DHT22;5592;49.234;7.268;2022-07-30T10:07:17;38.10;47.10
11079;DHT22;5592;49.234;7.268;2022-07-30T10:09:43;38.50;47.40
11079;DHT22;5592;49.234;7.268;2022-07-30T10:12:16;38.50;46.00
11079;DHT22;5592;49.234;7.268;2022-07-30T10:14:45;38.40;46.50
11079;DHT22;5592;49.234;7.268;2022-07-30T10:17:12;37.90;46.90
11079;DHT22;5592;49.234;7.268;2022-07-30T10:19:39;37.90;46.40
11079;DHT22;5592;49.234;7.268;2022-07-30T10:22:05;37.40;46.60
11079;DHT22;5592;49.234;7.268;2022-07-30T10:24:32;37.10;47.00
11079;DHT22;5592;49.234;7.268;2022-07-30T10:26:59;36.60;48.50
11079;DHT22;5592;49.234;7.268;2022-07-30T10:29:25;36.90;48.20
11079;DHT22;5592;49.234;7.268;2022-07-30T10:31:51;37.40;45.90
11079;DHT22;5592;49.234;7.268;2022-07-30T10:34:18;37.30;47.20
11079;DHT22;5592;49.234;7.268;2022-07-30T10:36:58;37.30;47.60
11079;DHT22;5592;49.234;7.268;2022-07-30T10:39:28;37.30;46.90
11079;DHT22;5592;49.234;7.268;2022-07-30T10:45:18;37.50;46.90
11079;DHT22;5592;49.234;7.268;2022-07-30T10:47:48;36.50;46.90
11079;DHT22;5592;49.234;7.268;2022-07-30T10:50:19;36.20;47.40
11079;DHT22;5592;49.234;7.268;2022-07-30T10:52:49;36.90;46.90
11079;DHT22;5592;49.234;7.268;2022-07-30T10:55:24;37.00;45.90
11079;DHT22;5592;49.234;7.268;2022-07-30T10:58:06;36.60;45.50
11079;DHT22;5592;49.234;7.268;2022-07-30T11:03:26;36.60;44.30
11079;DHT22;5592;49.234;7.268;2022-07-30T11:08:42;36.20;46.20
11079;DHT22;5592;49.234;7.268;2022-07-30T11:13:58;35.50;45.70
11079;DHT22;5592;49.234;7.268;2022-07-30T11:19:14;35.40;47.30
11079;DHT22;5592;49.234;7.268;2022-07-30T11:22:24;35.60;47.30
11079;DHT22;5592;49.234;7.268;2022-07-30T11:24:51;35.50;45.70
11079;DHT22;5592;49.234;7.268;2022-07-30T11:27:36;35.20;45.30
11079;DHT22;5592;49.234;7.268;2022-07-30T11:32:47;34.40;46.30
11079;DHT22;5592;49.234;7.268;2022-07-30T11:38:06;33.50;47.80
11079;DHT22;5592;49.234;7.268;2022-07-30T11:40:33;33.40;47.30
11079;DHT22;5592;49.234;7.268;2022-07-30T11:45:47;33.10;48.70
11079;DHT22;5592;49.234;7.268;2022-07-30T11:48:15;33.00;46.90
11079;DHT22;5592;49.234;7.268;2022-07-30T11:50:41;32.70;47.50
11079;DHT22;5592;49.234;7.268;2022-07-30T11:53:12;32.70;46.90
11079;DHT22;5592;49.234;7.268;2022-07-30T11:55:40;32.30;47.50
11079;DHT22;5592;49.234;7.268;2022-07-30T12:01:01;32.90;45.80
11079;DHT22;5592;49.234;7.268;2022-07-30T12:03:28;32.60;47.40
11079;DHT22;5592;49.234;7.268;2022-07-30T12:06:10;32.50;46.20
11079;DHT22;5592;49.234;7.268;2022-07-30T12:08:46;32.50;46.10
11079;DHT22;5592;49.234;7.268;2022-07-30T12:11:12;32.30;46.60
11079;DHT22;5592;49.234;7.268;2022-07-30T12:13:39;32.20;47.90
11079;DHT22;5592;49.234;7.268;2022-07-30T12:16:09;32.10;47.50
11079;DHT22;5592;49.234;7.268;2022-07-30T12:18:36;32.00;48.10
11079;DHT22;5592;49.234;7.268;2022-07-30T12:21:04;32.20;47.20
11079;DHT22;5592;49.234;7.268;2022-07-30T12:23:32;32.20;47.40
11079;DHT22;5592;49.234;7.268;2022-07-30T12:25:58;32.10;47.20
11079;DHT22;5592;49.234;7.268;2022-07-30T12:28:25;31.90;48.20
11079;DHT22;5592;49.234;7.268;2022-07-30T12:30:52;32.00;48.00
11079;DHT22;5592;49.234;7.268;2022-07-30T12:33:18;32.00;47.40
11079;DHT22;5592;49.234;7.268;2022-07-30T12:35:49;31.60;48.20
11079;DHT22;5592;49.234;7.268;2022-07-30T12:38:16;31.50;48.70
11079;DHT22;5592;49.234;7.268;2022-07-30T12:46:12;31.40;50.20
11079;DHT22;5592;49.234;7.268;2022-07-30T12:48:51;31.70;47.70
11079;DHT22;5592;49.234;7.268;2022-07-30T12:51:17;31.50;47.50
11079;DHT22;5592;49.234;7.268;2022-07-30T12:53:43;31.30;48.20
11079;DHT22;5592;49.234;7.268;2022-07-30T12:56:13;31.30;48.70
11079;DHT22;5592;49.234;7.268;2022-07-30T12:58:40;31.30;47.60
11079;DHT22;5592;49.234;7.268;2022-07-30T13:01:06;31.40;47.70
11079;DHT22;5592;49.234;7.268;2022-07-30T13:03:32;31.60;48.40
11079;DHT22;5592;49.234;7.268;2022-07-30T13:08:53;30.90;48.60
11079;DHT22;5592;49.234;7.268;2022-07-30T13:11:22;31.00;48.30
11079;DHT22;5592;49.234;7.268;2022-07-30T13:13:48;30.60;49.10
11079;DHT22;5592;49.234;7.268;2022-07-30T13:16:15;30.90;48.20
11079;DHT22;5592;49.234;7.268;2022-07-30T13:18:41;31.20;48.80
11079;DHT22;5592;49.234;7.268;2022-07-30T13:21:07;31.40;48.50
11079;DHT22;5592;49.234;7.268;2022-07-30T13:23:34;31.80;49.10
11079;DHT22;5592;49.234;7.268;2022-07-30T13:26:00;31.70;47.00
11079;DHT22;5592;49.234;7.268;2022-07-30T13:28:26;31.60;46.90
11079;DHT22;5592;49.234;7.268;2022-07-30T13:30:52;31.60;47.10
11079;DHT22;5592;49.234;7.268;2022-07-30T13:33:18;31.60;47.40
11079;DHT22;5592;49.234;7.268;2022-07-30T13:35:43;31.70;47.50
11079;DHT22;5592;49.234;7.268;2022-07-30T13:38:09;31.70;46.80
11079;DHT22;5592;49.234;7.268;2022-07-30T13:40:37;31.30;47.30
11079;DHT22;5592;49.234;7.268;2022-07-30T13:43:03;30.80;48.20
11079;DHT22;5592;49.234;7.268;2022-07-30T13:45:29;30.80;48.50
11079;DHT22;5592;49.234;7.268;2022-07-30T13:47:55;30.70;49.50
11079;DHT22;5592;49.234;7.268;2022-07-30T13:50:21;30.80;48.40
11079;DHT22;5592;49.234;7.268;2022-07-30T13:52:46;30.90;48.40
11079;DHT22;5592;49.234;7.268;2022-07-30T13:55:12;30.90;48.20
11079;DHT22;5592;49.234;7.268;2022-07-30T13:57:38;30.70;49.00
11079;DHT22;5592;49.234;7.268;2022-07-30T14:00:05;31.00;48.40
11079;DHT22;5592;49.234;7.268;2022-07-30T14:02:31;31.10;47.40
11079;DHT22;5592;49.234;7.268;2022-07-30T14:04:57;31.20;48.00
11079;DHT22;5592;49.234;7.268;2022-07-30T14:07:23;31.10;48.50
11079;DHT22;5592;49.234;7.268;2022-07-30T14:09:48;31.20;48.20
11079;DHT22;5592;49.234;7.268;2022-07-30T14:12:14;31.30;48.40
11079;DHT22;5592;49.234;7.268;2022-07-30T14:14:40;31.10;47.40
11079;DHT22;5592;49.234;7.268;2022-07-30T14:17:07;30.90;48.10
11079;DHT22;5592;49.234;7.268;2022-07-30T14:19:32;30.60;47.90
11079;DHT22;5592;49.234;7.268;2022-07-30T14:21:58;30.30;49.20
11079;DHT22;5592;49.234;7.268;2022-07-30T14:24:24;30.20;48.70
11079;DHT22;5592;49.234;7.268;2022-07-30T14:26:50;30.20;49.00
11079;DHT22;5592;49.234;7.268;2022-07-30T14:29:16;30.20;48.90
11079;DHT22;5592;49.234;7.268;2022-07-30T14:31:42;30.20;49.10
11079;DHT22;5592;49.234;7.268;2022-07-30T14:34:08;30.10;48.70
11079;DHT22;5592;49.234;7.268;2022-07-30T14:36:34;30.10;49.10
11079;DHT22;5592;49.234;7.268;2022-07-30T14:39:02;30.20;49.90
11079;DHT22;5592;49.234;7.268;2022-07-30T14:41:29;30.20;49.30
11079;DHT22;5592;49.234;7.268;2022-07-30T14:43:54;30.20;49.10
11079;DHT22;5592;49.234;7.268;2022-07-30T14:46:20;30.10;49.90
11079;DHT22;5592;49.234;7.268;2022-07-30T14:48:45;30.10;48.90
11079;DHT22;5592;49.234;7.268;2022-07-30T14:51:11;30.00;50.10
11079;DHT22;5592;49.234;7.268;2022-07-30T14:53:37;29.90;49.30
11079;DHT22;5592;49.234;7.268;2022-07-30T14:56:03;29.80;49.90
11079;DHT22;5592;49.234;7.268;2022-07-30T14:58:28;29.60;49.60
11079;DHT22;5592;49.234;7.268;2022-07-30T15:00:54;29.60;49.30
11079;DHT22;5592;49.234;7.268;2022-07-30T15:03:20;29.70;49.80
11079;DHT22;5592;49.234;7.268;2022-07-30T15:05:45;29.80;49.50
11079;DHT22;5592;49.234;7.268;2022-07-30T15:08:11;29.80;49.70
11079;DHT22;5592;49.234;7.268;2022-07-30T15:10:38;29.90;49.50
11079;DHT22;5592;49.234;7.268;2022-07-30T15:13:04;29.90;49.50
11079;DHT22;5592;49.234;7.268;2022-07-30T15:15:32;29.80;49.10
11079;DHT22;5592;49.234;7.268;2022-07-30T15:17:59;29.80;49.80
11079;DHT22;5592;49.234;7.268;2022-07-30T15:20:25;29.80;50.10
11079;DHT22;5592;49.234;7.268;2022-07-30T15:22:51;30.00;49.80
11079;DHT22;5592;49.234;7.268;2022-07-30T15:25:19;29.90;48.80
11079;DHT22;5592;49.234;7.268;2022-07-30T15:27:46;29.70;49.80
11079;DHT22;5592;49.234;7.268;2022-07-30T15:30:12;29.50;49.50
11079;DHT22;5592;49.234;7.268;2022-07-30T15:32:37;29.30;50.50
11079;DHT22;5592;49.234;7.268;2022-07-30T15:35:03;29.10;51.50
11079;DHT22;5592;49.234;7.268;2022-07-30T15:37:29;28.80;51.80
11079;DHT22;5592;49.234;7.268;2022-07-30T15:39:54;28.90;52.40
11079;DHT22;5592;49.234;7.268;2022-07-30T15:42:20;29.00;51.00
11079;DHT22;5592;49.234;7.268;2022-07-30T15:44:46;29.10;50.90
11079;DHT22;5592;49.234;7.268;2022-07-30T15:47:11;29.30;51.70
11079;DHT22;5592;49.234;7.268;2022-07-30T15:49:37;29.30;51.00
11079;DHT22;5592;49.234;7.268;2022-07-30T15:52:05;29.50;52.10
11079;DHT22;5592;49.234;7.268;2022-07-30T15:54:31;29.40;50.90
11079;DHT22;5592;49.234;7.268;2022-07-30T15:56:57;29.30;51.20
11079;DHT22;5592;49.234;7.268;2022-07-30T15:59:25;29.30;51.90
11079;DHT22;5592;49.234;7.268;2022-07-30T16:01:52;29.30;50.90
11079;DHT22;5592;49.234;7.268;2022-07-30T16:04:18;29.30;51.20
11079;DHT22;5592;49.234;7.268;2022-07-30T16:06:46;29.30;50.40
11079;DHT22;5592;49.234;7.268;2022-07-30T16:09:12;29.40;51.20
11079;DHT22;5592;49.234;7.268;2022-07-30T16:11:38;29.30;51.70
11079;DHT22;5592;49.234;7.268;2022-07-30T16:14:05;29.50;52.30
11079;DHT22;5592;49.234;7.268;2022-07-30T16:16:31;29.60;50.50
11079;DHT22;5592;49.234;7.268;2022-07-30T16:18:56;29.70;50.80
11079;DHT22;5592;49.234;7.268;2022-07-30T16:21:22;29.90;50.80
11079;DHT22;5592;49.234;7.268;2022-07-30T16:23:48;30.00;49.70
11079;DHT22;5592;49.234;7.268;2022-07-30T16:26:17;29.80;49.20
11079;DHT22;5592;49.234;7.268;2022-07-30T16:28:42;29.70;50.00
11079;DHT22;5592;49.234;7.268;2022-07-30T16:31:08;29.70;50.30
11079;DHT22;5592;49.234;7.268;2022-07-30T16:33:34;29.50;49.70